Roald Amundsen — DARG — position and weather

sailwx.info

Track history (hours):
 
Tides and Currents Weather Stations Pressure Air Temp Water Temp Dewpoint Dewpoint Depression Visibility Wind Speed Wind Dir Waves Ship Positions

Roald Amundsen (Germany)

Built as a deep sea lugger in 1952. Converted and rigged as a traditional brig in 1992.

Ship's website: http://www.sailtraining.de/

Last reported at 2017-Nov-17 06:36 UTC. Time now 2017-Nov-17 19:25 UTC.
Position N 28°28' W 016°15'.

Length 50 m; beam 7.4 m; draft 4.5 m.

Type: Sailing vessel. MMSI: 211215170.

Date/timePositionNaut miles runAvg speedWind from/ knotsBaromVisibWave heightAir tempDewpointWater temp
2017-Nov-17 06:36N 28°28' W 016°15'0 0.0
2017-Nov-17 03:50N 28°28' W 016°15'0 0.0
2017-Nov-17 03:24N 28°28' W 016°15'0 0.0
2017-Nov-17 02:54N 28°28' W 016°15'0 0.0
2017-Nov-16 10:31N 28°28' W 016°15'0 0.0
2017-Nov-16 10:30N 28°28' W 016°15'1 1.0
2017-Nov-16 09:59N 28°27' W 016°15'3 5.3
2017-Nov-16 09:24N 28°28' W 016°11'4 6.9
2017-Nov-16 08:50N 28°29' W 016°07'3 7.1
2017-Nov-16 08:29N 28°29' W 016°04'3 6.2
2017-Nov-16 08:00N 28°32' W 016°02'3 5.0
2017-Nov-16 07:30N 28°34' W 016°01'4 7.2
2017-Nov-16 06:59N 28°37' W 015°59'4 7.1
2017-Nov-16 06:28N 28°40' W 015°56'5 7.0
2017-Nov-16 05:49N 28°44' W 015°53'6 7.0
2017-Nov-16 04:54N 28°49' W 015°49'  
2017-Nov-12 19:03N 30°08' W 015°52'0 0.1
2017-Nov-12 18:25N 30°08' W 015°52'0 0.2
2017-Nov-12 17:44N 30°08' W 015°53'0 0.0
2017-Nov-12 17:19N 30°08' W 015°53'  
Track history (hours):
 
Tides and Currents Weather Stations Pressure Air Temp Water Temp Dewpoint Dewpoint Depression Visibility Wind Speed Wind Dir Waves Ship Positions

Roald Amundsen (Germany)

Built as a deep sea lugger in 1952. Converted and rigged as a traditional brig in 1992.

Ship's website: http://www.sailtraining.de/

Last reported at 2017-Nov-17 06:36 UTC. Time now 2017-Nov-17 19:25 UTC.
Position N 28°28' W 016°15'.

Length 50 m; beam 7.4 m; draft 4.5 m.

Type: Sailing vessel. MMSI: 211215170.

Date/timePositionNaut miles runAvg speedWind from/ knotsBaromVisibWave heightAir tempDewpointWater temp
2017-Nov-17 06:36N 28°28' W 016°15'0 0.0
2017-Nov-17 03:50N 28°28' W 016°15'0 0.0
2017-Nov-17 03:24N 28°28' W 016°15'0 0.0
2017-Nov-17 02:54N 28°28' W 016°15'0 0.0
2017-Nov-16 10:31N 28°28' W 016°15'0 0.0
2017-Nov-16 10:30N 28°28' W 016°15'1 1.0
2017-Nov-16 09:59N 28°27' W 016°15'3 5.3
2017-Nov-16 09:24N 28°28' W 016°11'4 6.9
2017-Nov-16 08:50N 28°29' W 016°07'3 7.1
2017-Nov-16 08:29N 28°29' W 016°04'3 6.2
2017-Nov-16 08:00N 28°32' W 016°02'3 5.0
2017-Nov-16 07:30N 28°34' W 016°01'4 7.2
2017-Nov-16 06:59N 28°37' W 015°59'4 7.1
2017-Nov-16 06:28N 28°40' W 015°56'5 7.0
2017-Nov-16 05:49N 28°44' W 015°53'6 7.0
2017-Nov-16 04:54N 28°49' W 015°49'  
2017-Nov-12 19:03N 30°08' W 015°52'0 0.1
2017-Nov-12 18:25N 30°08' W 015°52'0 0.2
2017-Nov-12 17:44N 30°08' W 015°53'0 0.0
2017-Nov-12 17:19N 30°08' W 015°53'  

Dump ship's entire track history